Time;durP1;ratioP1;P1;durP2;ratioP2;P2;SDS_P1;SDS_P2;PMS_P1;PMS_P2;Temp;Humidity;BMP_temperature;BMP_pressure;BME280_temperature;BME280_humidity;BME280_pressure;Samples;Min_cycle;Max_cycle;Signal;HPM_P1;HPM_P2
2022/11/26 00:00:31;;;;;;;0.00;0.00;;;15.70;86.80;;;;;;4192970;28;20059;-61
2022/11/26 00:03:14;;;;;;;0.00;0.00;;;15.70;86.90;;;;;;4193292;28;20048;-61
2022/11/26 00:05:57;;;;;;;0.00;0.00;;;15.60;86.90;;;;;;4186929;28;20059;-62
2022/11/26 00:08:38;;;;;;;0.00;0.00;;;15.70;87.90;;;;;;4192302;28;20518;-60
2022/11/26 00:11:19;;;;;;;0.00;0.00;;;15.60;87.00;;;;;;4192663;28;20517;-61
2022/11/26 00:14:00;;;;;;;0.10;0.10;;;15.60;87.10;;;;;;4193083;28;20051;-61
2022/11/26 00:16:41;;;;;;;0.00;0.00;;;15.60;87.10;;;;;;4192134;28;20725;-61
2022/11/26 00:19:23;;;;;;;0.43;0.43;;;15.60;87.10;;;;;;4193045;28;20055;-61
2022/11/26 00:22:04;;;;;;;0.00;0.00;;;15.60;87.20;;;;;;4193967;28;20055;-61
2022/11/26 00:24:45;;;;;;;0.00;0.00;;;15.60;87.30;;;;;;4193158;28;20768;-61
2022/11/26 00:27:27;;;;;;;0.00;0.00;;;15.50;87.20;;;;;;4193054;27;20052;-61
2022/11/26 00:30:16;;;;;;;0.75;0.75;;;15.50;87.30;;;;;;4192381;28;20055;-61
2022/11/26 00:32:58;;;;;;;0.10;0.10;;;15.50;87.40;;;;;;4202531;28;20100;-61
2022/11/26 00:35:40;;;;;;;0.00;0.00;;;15.50;87.40;;;;;;4209267;28;20093;-61
2022/11/26 00:38:22;;;;;;;0.00;0.00;;;15.50;87.50;;;;;;4196966;28;20052;-61
2022/11/26 00:41:02;;;;;;;;;;;15.50;87.50;;;;;;4193067;28;20058;-60
2022/11/26 00:43:45;;;;;;;0.00;0.00;;;15.50;87.50;;;;;;4193240;28;19927;-61
2022/11/26 00:46:26;;;;;;;0.03;0.03;;;15.40;87.50;;;;;;4192603;28;20047;-61
2022/11/26 00:49:06;;;;;;;13.25;2.47;;;15.40;87.60;;;;;;4192362;28;20503;-60
2022/11/26 00:51:49;;;;;;;0.00;0.00;;;15.40;87.70;;;;;;4192397;28;20051;-61
2022/11/26 00:54:30;;;;;;;0.22;0.22;;;15.40;87.80;;;;;;4181500;28;20051;-61
2022/11/26 00:57:11;;;;;;;0.00;0.00;;;15.40;87.80;;;;;;4192483;28;20506;-61
2022/11/26 00:59:52;;;;;;;0.00;0.00;;;15.40;87.80;;;;;;4192239;28;20051;-60
2022/11/26 01:02:33;;;;;;;0.00;0.00;;;15.40;88.80;;;;;;4192424;28;20048;-61
2022/11/26 01:05:14;;;;;;;0.00;0.00;;;15.40;87.90;;;;;;4192412;28;20055;-61
2022/11/26 01:07:58;;;;;;;;;;;15.30;88.00;;;;;;4192591;28;20553;-61
2022/11/26 01:10:39;;;;;;;0.00;0.00;;;15.30;87.80;;;;;;4191426;28;20038;-61
2022/11/26 01:13:20;;;;;;;0.00;0.00;;;15.30;87.90;;;;;;4191667;28;20059;-61
2022/11/26 01:16:02;;;;;;;0.00;0.00;;;15.30;88.00;;;;;;4191894;28;20375;-60
2022/11/26 01:18:43;;;;;;;0.00;0.00;;;15.30;88.10;;;;;;4192298;28;20051;-61
2022/11/26 01:21:26;;;;;;;0.13;0.13;;;15.30;88.10;;;;;;4191618;28;20051;-61
2022/11/26 01:24:08;;;;;;;0.00;0.00;;;15.30;88.20;;;;;;4175102;28;20412;-61
2022/11/26 01:26:49;;;;;;;0.00;0.00;;;15.30;88.20;;;;;;4177939;28;20068;-60
2022/11/26 01:29:30;;;;;;;0.25;0.25;;;15.20;88.20;;;;;;4174984;28;20052;-61
2022/11/26 01:32:11;;;;;;;0.52;0.52;;;15.20;88.30;;;;;;4192001;28;20200;-60
2022/11/26 01:34:52;;;;;;;0.00;0.00;;;15.20;88.40;;;;;;4192063;28;20130;-61
2022/11/26 01:37:33;;;;;;;0.00;0.00;;;15.20;88.40;;;;;;4191755;28;20121;-61
2022/11/26 01:40:38;;;;;;;0.40;0.40;;;15.20;88.40;;;;;;4191657;28;20062;-61
2022/11/26 01:43:25;;;;;;;0.00;0.00;;;15.20;88.40;;;;;;4180119;27;20089;-61
2022/11/26 01:46:14;;;;;;;0.00;0.00;;;15.20;88.50;;;;;;4175030;28;20156;-62
2022/11/26 01:48:55;;;;;;;0.10;0.10;;;15.20;88.50;;;;;;4175200;28;20060;-62
2022/11/26 01:51:36;;;;;;;0.00;0.00;;;15.20;88.60;;;;;;4174803;28;20060;-67
2022/11/26 01:54:17;;;;;;;1.40;1.40;;;15.30;88.50;;;;;;4174657;28;20538;-61
2022/11/26 01:57:05;;;;;;;0.00;0.00;;;15.30;88.20;;;;;;4174845;28;20399;-62
2022/11/26 01:59:51;;;;;;;0.00;0.00;;;15.30;88.00;;;;;;4175804;28;20076;-63
2022/11/26 02:02:33;;;;;;;0.00;0.00;;;15.40;87.80;;;;;;4169368;28;20048;-61
2022/11/26 02:05:21;;;;;;;0.10;0.10;;;15.40;87.60;;;;;;4191734;28;20071;-62
2022/11/26 02:08:03;;;;;;;0.00;0.00;;;15.50;87.30;;;;;;4189864;28;20598;-62
2022/11/26 02:10:45;;;;;;;0.00;0.00;;;15.50;87.10;;;;;;4191651;28;20554;-60
2022/11/26 02:13:28;;;;;;;0.00;0.00;;;15.60;87.00;;;;;;4191604;28;20056;-61
2022/11/26 02:16:17;;;;;;;0.00;0.00;;;15.50;86.90;;;;;;4187960;28;20179;-61
2022/11/26 02:19:17;;;;;;;0.03;0.03;;;15.50;86.90;;;;;;4178221;28;20130;-61
2022/11/26 02:22:06;;;;;;;0.00;0.00;;;15.60;86.90;;;;;;4174338;28;20450;-60
2022/11/26 02:24:50;;;;;;;0.00;0.00;;;15.70;86.50;;;;;;4175017;28;20339;-62
2022/11/26 02:28:17;;;;;;;0.17;0.10;;;15.80;86.10;;;;;;4175148;28;20056;-61
2022/11/26 02:31:06;;;;;;;0.00;0.00;;;15.80;85.70;;;;;;4166759;28;20051;-61
2022/11/26 02:33:53;;;;;;;0.00;0.00;;;15.90;85.40;;;;;;4190453;28;20054;-61
2022/11/26 02:36:40;;;;;;;0.68;0.68;;;15.90;85.30;;;;;;4190555;28;20400;-61
2022/11/26 02:39:23;;;;;;;0.00;0.00;;;15.90;85.20;;;;;;4191203;28;20055;-61
2022/11/26 02:42:22;;;;;;;0.00;0.00;;;15.90;85.10;;;;;;4191232;28;20048;-61
2022/11/26 02:45:08;;;;;;;0.00;0.00;;;15.90;85.20;;;;;;4193653;28;20157;-61
2022/11/26 02:47:56;;;;;;;0.00;0.00;;;15.80;85.20;;;;;;4211112;28;20055;-60
2022/11/26 02:50:41;;;;;;;0.00;0.00;;;15.90;85.20;;;;;;4177280;28;20048;-61
2022/11/26 02:53:25;;;;;;;0.00;0.00;;;15.90;85.10;;;;;;4185650;28;20084;-61
2022/11/26 02:56:10;;;;;;;0.00;0.00;;;15.90;85.00;;;;;;4194428;28;20178;-60
2022/11/26 02:58:52;;;;;;;0.00;0.00;;;15.90;84.90;;;;;;4194205;28;20052;-61
2022/11/26 03:01:37;;;;;;;0.00;0.00;;;15.90;84.80;;;;;;4194182;28;20055;-61
2022/11/26 03:04:22;;;;;;;0.00;0.00;;;16.00;84.80;;;;;;4182661;28;20068;-62
2022/11/26 03:07:06;;;;;;;0.03;0.03;;;16.00;84.70;;;;;;4178315;28;20106;-61
2022/11/26 03:09:51;;;;;;;0.00;0.00;;;16.00;84.70;;;;;;4193653;28;20071;-61
2022/11/26 03:12:32;;;;;;;0.15;0.15;;;16.00;84.80;;;;;;4193743;28;20513;-62
2022/11/26 03:15:13;;;;;;;0.00;0.00;;;16.00;84.60;;;;;;4176166;28;20490;-62
2022/11/26 03:17:54;;;;;;;0.00;0.00;;;16.10;83.60;;;;;;4177616;28;20047;-61
2022/11/26 03:20:36;;;;;;;0.10;0.10;;;16.10;84.00;;;;;;4175823;28;20060;-61
2022/11/26 03:23:17;;;;;;;0.10;0.10;;;16.10;83.90;;;;;;4163315;28;20531;-61
2022/11/26 03:25:58;;;;;;;0.00;0.00;;;16.10;83.80;;;;;;4175776;28;20079;-62
2022/11/26 03:28:39;;;;;;;0.00;0.00;;;16.10;83.90;;;;;;4177087;28;20052;-61
2022/11/26 03:31:20;;;;;;;0.00;0.00;;;16.10;83.90;;;;;;4177033;28;20052;-61
2022/11/26 03:34:00;;;;;;;0.00;0.00;;;16.10;83.70;;;;;;4177116;28;20175;-61
2022/11/26 03:36:43;;;;;;;0.00;0.00;;;16.10;83.60;;;;;;4177292;28;20113;-61
2022/11/26 03:39:24;;;;;;;1.17;0.85;;;16.10;83.50;;;;;;4191567;28;20506;-60
2022/11/26 03:42:05;;;;;;;0.00;0.00;;;16.20;83.60;;;;;;4193393;28;20089;-62
2022/11/26 03:44:46;;;;;;;0.47;0.47;;;16.20;83.50;;;;;;4208684;27;20059;-61
2022/11/26 03:47:27;;;;;;;0.00;0.00;;;16.20;83.50;;;;;;4209670;27;20071;-61
2022/11/26 03:50:08;;;;;;;0.00;0.00;;;16.10;83.50;;;;;;4208994;27;20058;-61
2022/11/26 03:52:50;;;;;;;;;;;16.10;83.50;;;;;;4210712;27;20112;-61
2022/11/26 03:55:31;;;;;;;0.10;0.10;;;16.10;83.60;;;;;;4208445;27;19931;-61
2022/11/26 03:58:12;;;;;;;0.20;0.20;;;16.10;83.70;;;;;;4209957;27;20051;-61
2022/11/26 04:00:53;;;;;;;0.00;0.00;;;16.00;83.90;;;;;;4210104;27;20116;-60
2022/11/26 04:03:34;;;;;;;0.00;0.00;;;16.00;84.00;;;;;;4208787;28;20043;-61
2022/11/26 04:06:15;;;;;;;0.13;0.13;;;16.00;84.00;;;;;;4210077;27;20055;-61
2022/11/26 04:08:57;;;;;;;0.00;0.00;;;16.00;83.90;;;;;;4210011;27;20386;-61
2022/11/26 04:11:38;;;;;;;0.00;0.00;;;16.00;83.80;;;;;;4194681;27;20047;-61
2022/11/26 04:14:19;;;;;;;0.00;0.00;;;16.10;83.80;;;;;;4193657;28;20558;-60
2022/11/26 04:17:00;;;;;;;0.00;0.00;;;16.10;83.60;;;;;;4193174;28;20101;-59
2022/11/26 04:19:41;;;;;;;0.00;0.00;;;16.10;83.40;;;;;;4176230;28;20056;-60
2022/11/26 04:22:22;;;;;;;0.00;0.00;;;16.10;83.40;;;;;;4193140;28;20059;-61
2022/11/26 04:25:05;;;;;;;0.00;0.00;;;16.20;83.30;;;;;;4192533;28;20060;-60
2022/11/26 04:27:45;;;;;;;0.00;0.00;;;16.20;84.00;;;;;;4193826;28;20055;-61
2022/11/26 04:30:27;;;;;;;1.65;1.35;;;16.20;82.90;;;;;;4191949;28;20242;-61
2022/11/26 04:33:09;;;;;;;0.10;0.10;;;16.30;82.90;;;;;;4192494;28;20097;-60
2022/11/26 04:35:51;;;;;;;0.30;0.30;;;16.20;82.80;;;;;;4192450;28;20059;-61
2022/11/26 04:38:31;;;;;;;0.00;0.00;;;16.30;82.70;;;;;;4192787;28;20059;-60
2022/11/26 04:41:14;;;;;;;0.00;0.00;;;16.30;82.60;;;;;;4192083;28;20147;-59
2022/11/26 04:43:55;;;;;;;0.00;0.00;;;16.30;82.40;;;;;;4193886;28;20182;-60
2022/11/26 04:46:36;;;;;;;0.20;0.20;;;16.30;82.40;;;;;;4192438;28;20059;-59
2022/11/26 04:49:16;;;;;;;0.20;0.20;;;16.30;82.20;;;;;;4192420;28;20314;-61
2022/11/26 04:51:57;;;;;;;0.00;0.00;;;16.40;82.10;;;;;;4192163;28;20502;-60
2022/11/26 04:54:38;;;;;;;0.20;0.20;;;16.40;82.10;;;;;;4191933;28;20051;-60
2022/11/26 04:57:20;;;;;;;0.00;0.00;;;16.40;82.10;;;;;;4190877;28;20403;-60
2022/11/26 05:00:01;;;;;;;0.10;0.10;;;16.40;82.10;;;;;;4191811;28;20067;-60
2022/11/26 05:02:43;;;;;;;0.00;0.00;;;16.40;82.00;;;;;;4192129;28;20056;-61
2022/11/26 05:05:24;;;;;;;0.00;0.00;;;16.40;82.80;;;;;;4192210;28;20078;-61
2022/11/26 05:08:05;;;;;;;0.00;0.00;;;16.30;81.80;;;;;;4191313;28;20387;-60
2022/11/26 05:10:46;;;;;;;0.22;0.22;;;16.40;81.90;;;;;;4189175;28;20138;-61
2022/11/26 05:13:28;;;;;;;0.53;0.53;;;16.30;82.10;;;;;;4192084;28;20078;-61
2022/11/26 05:16:09;;;;;;;0.00;0.00;;;16.30;83.10;;;;;;4193090;28;20085;-61
2022/11/26 05:18:50;;;;;;;0.00;0.00;;;16.20;82.50;;;;;;4192037;28;20115;-61
2022/11/26 05:21:31;;;;;;;0.00;0.00;;;16.30;82.50;;;;;;4191970;28;20056;-60
2022/11/26 05:24:12;;;;;;;0.00;0.00;;;16.20;82.40;;;;;;4191934;28;20051;-61
2022/11/26 05:26:53;;;;;;;0.90;0.70;;;16.30;82.40;;;;;;4201786;28;20104;-60
2022/11/26 05:29:38;;;;;;;0.00;0.00;;;16.20;82.40;;;;;;4208455;28;20162;-60
2022/11/26 05:32:19;;;;;;;0.00;0.00;;;16.30;82.50;;;;;;4208982;28;20047;-60
2022/11/26 05:35:00;;;;;;;0.73;0.70;;;16.40;82.10;;;;;;4209088;28;20133;-61
2022/11/26 05:37:41;;;;;;;0.08;0.08;;;16.40;81.80;;;;;;4200669;28;20043;-60
2022/11/26 05:40:22;;;;;;;0.10;0.10;;;16.40;81.60;;;;;;4191469;28;20177;-60
2022/11/26 05:43:02;;;;;;;0.00;0.00;;;16.40;81.50;;;;;;4191501;28;20716;-60
2022/11/26 05:45:45;;;;;;;0.00;0.00;;;16.40;81.50;;;;;;4190963;28;20420;-60
2022/11/26 05:48:26;;;;;;;0.38;0.38;;;16.40;81.60;;;;;;4191351;28;20704;-61
2022/11/26 05:51:07;;;;;;;0.00;0.00;;;16.40;81.80;;;;;;4191617;28;20060;-59
2022/11/26 05:53:47;;;;;;;0.00;0.00;;;16.40;81.60;;;;;;4191888;28;20051;-60
2022/11/26 05:56:28;;;;;;;0.00;0.00;;;16.40;81.50;;;;;;4192582;28;20110;-60
2022/11/26 05:59:10;;;;;;;0.00;0.00;;;16.40;81.40;;;;;;4191829;28;20091;-60
2022/11/26 06:01:52;;;;;;;0.20;0.20;;;16.40;81.40;;;;;;4191496;28;20050;-60
2022/11/26 06:04:33;;;;;;;0.10;0.10;;;16.50;81.10;;;;;;4191214;28;20071;-61
2022/11/26 06:07:14;;;;;;;0.52;0.52;;;16.50;81.00;;;;;;4191329;28;20379;-60
2022/11/26 06:09:55;;;;;;;0.00;0.00;;;16.50;80.80;;;;;;4191428;28;20060;-59
2022/11/26 06:12:36;;;;;;;3.05;2.63;;;16.50;80.80;;;;;;4193063;28;20190;-59
2022/11/26 06:15:17;;;;;;;0.00;0.00;;;16.60;80.80;;;;;;4191657;28;20056;-60
2022/11/26 06:18:00;;;;;;;0.75;0.75;;;16.60;80.70;;;;;;4191492;28;20051;-60
2022/11/26 06:20:40;;;;;;;0.15;0.15;;;16.60;80.60;;;;;;4194821;28;20051;-60
2022/11/26 06:23:21;;;;;;;0.00;0.00;;;16.60;80.60;;;;;;4194987;28;20060;-60
2022/11/26 06:26:07;;;;;;;0.00;0.00;;;16.50;80.60;;;;;;4194651;28;20051;-60
2022/11/26 06:28:48;;;;;;;0.10;0.10;;;16.50;80.80;;;;;;4203617;28;20140;-61
2022/11/26 06:31:29;;;;;;;0.00;0.00;;;16.40;81.10;;;;;;4211528;28;20051;-61
2022/11/26 06:34:11;;;;;;;1.67;1.58;;;16.40;81.30;;;;;;4210279;28;20039;-61
2022/11/26 06:36:52;;;;;;;0.30;0.30;;;16.40;81.20;;;;;;4210319;28;20155;-62
2022/11/26 06:39:33;;;;;;;0.08;0.08;;;16.50;81.10;;;;;;4193091;28;20051;-60
2022/11/26 06:42:13;;;;;;;0.00;0.00;;;16.50;81.10;;;;;;4193254;28;20043;-60
2022/11/26 06:44:54;;;;;;;0.15;0.15;;;16.60;80.80;;;;;;4203747;28;20090;-59
2022/11/26 06:47:39;;;;;;;0.00;0.00;;;16.60;80.70;;;;;;4196588;28;20051;-58
2022/11/26 06:50:23;;;;;;;0.00;0.00;;;16.60;80.40;;;;;;4194216;28;20395;-60
2022/11/26 06:53:04;;;;;;;0.00;0.00;;;16.60;80.30;;;;;;4194505;28;20141;-60
2022/11/26 06:55:45;;;;;;;0.00;0.00;;;16.60;81.20;;;;;;4194262;28;20059;-60
2022/11/26 06:58:26;;;;;;;19.52;1.52;;;16.60;80.40;;;;;;4194360;28;20051;-60
2022/11/26 07:01:08;;;;;;;0.00;0.00;;;16.50;80.70;;;;;;4194834;27;20137;-61
2022/11/26 07:03:49;;;;;;;44.10;1.50;;;16.40;80.70;;;;;;4194330;28;20105;-60
2022/11/26 07:06:33;;;;;;;0.00;0.00;;;16.40;81.00;;;;;;4194128;28;20051;-60
2022/11/26 07:09:13;;;;;;;0.10;0.10;;;16.30;81.30;;;;;;4193882;28;20067;-60
2022/11/26 07:11:54;;;;;;;0.00;0.00;;;16.30;81.70;;;;;;4194261;28;20090;-60
2022/11/26 07:14:35;;;;;;;0.00;0.00;;;16.30;81.70;;;;;;4193667;28;20137;-60
2022/11/26 07:17:16;;;;;;;0.00;0.00;;;16.40;81.50;;;;;;4193699;28;20052;-60
2022/11/26 07:19:57;;;;;;;0.25;0.25;;;16.40;81.30;;;;;;4194553;28;20048;-60
2022/11/26 07:22:39;;;;;;;0.00;0.00;;;16.40;81.10;;;;;;4193748;28;20048;-60
2022/11/26 07:25:19;;;;;;;0.00;0.00;;;16.40;81.10;;;;;;4193674;28;20097;-60
2022/11/26 07:28:00;;;;;;;0.00;0.00;;;16.40;80.90;;;;;;4176946;28;20051;-59
2022/11/26 07:30:41;;;;;;;0.00;0.00;;;16.50;80.80;;;;;;4176090;28;20048;-62
2022/11/26 07:33:22;;;;;;;0.00;0.00;;;16.40;80.90;;;;;;4177175;28;20055;-62
2022/11/26 07:36:05;;;;;;;0.00;0.00;;;16.40;81.10;;;;;;4167778;28;20048;-64
2022/11/26 07:38:48;;;;;;;0.00;0.00;;;16.40;81.20;;;;;;4176579;28;20113;-64
2022/11/26 07:41:30;;;;;;;0.00;0.00;;;16.40;81.30;;;;;;4193432;28;20056;-61
2022/11/26 07:44:13;;;;;;;0.08;0.08;;;16.40;81.00;;;;;;4193337;28;20063;-61
2022/11/26 07:46:54;;;;;;;0.00;0.00;;;16.50;80.90;;;;;;4192939;28;20202;-60
2022/11/26 07:49:35;;;;;;;0.47;0.47;;;16.50;80.70;;;;;;4193980;28;20047;-60
2022/11/26 07:52:16;;;;;;;0.10;0.10;;;16.50;81.10;;;;;;4209925;27;20042;-60
2022/11/26 07:54:58;;;;;;;0.45;0.45;;;16.50;80.90;;;;;;4209544;27;20082;-60
2022/11/26 07:57:39;;;;;;;1.13;1.13;;;16.50;80.60;;;;;;4193421;28;20121;-59
2022/11/26 08:00:21;;;;;;;0.08;0.08;;;16.50;80.50;;;;;;4193374;28;20070;-59
2022/11/26 08:03:02;;;;;;;0.40;0.40;;;16.50;80.40;;;;;;4193516;28;20067;-60
2022/11/26 08:05:44;;;;;;;0.17;0.17;;;16.50;80.60;;;;;;4191488;28;20703;-60
2022/11/26 08:08:25;;;;;;;0.40;0.40;;;16.40;80.60;;;;;;4176722;28;20056;-60
2022/11/26 08:11:14;;;;;;;0.10;0.10;;;16.50;80.20;;;;;;4191970;28;20190;-60
2022/11/26 08:13:57;;;;;;;1.33;0.73;;;16.50;79.70;;;;;;4206599;27;20055;-60
2022/11/26 08:16:39;;;;;;;0.00;0.00;;;16.40;79.50;;;;;;4206222;27;20059;-59
2022/11/26 08:19:20;;;;;;;;;;;16.50;79.30;;;;;;4192422;28;20435;-59
2022/11/26 08:22:00;;;;;;;0.10;0.10;;;16.50;78.90;;;;;;4193206;28;19926;-60
2022/11/26 08:24:42;;;;;;;0.00;0.00;;;16.50;78.50;;;;;;4189502;28;20067;-60
2022/11/26 08:27:24;;;;;;;0.20;0.20;;;16.40;78.30;;;;;;4189272;28;20051;-60
2022/11/26 08:30:07;;;;;;;0.45;0.45;;;16.50;78.40;;;;;;4175287;28;20052;-60
2022/11/26 08:32:48;;;;;;;0.20;0.20;;;16.40;78.50;;;;;;4188033;28;20059;-59
2022/11/26 08:35:29;;;;;;;0.00;0.00;;;16.40;78.50;;;;;;4192676;28;20130;-60
2022/11/26 08:38:30;;;;;;;0.05;0.05;;;16.40;78.40;;;;;;4190551;28;20052;-60
2022/11/26 08:41:13;;;;;;;0.00;0.00;;;16.40;78.30;;;;;;4192284;28;20186;-59
2022/11/26 08:43:55;;;;;;;1.67;0.88;;;16.40;78.20;;;;;;4192320;28;20511;-60
2022/11/26 08:46:51;;;;;;;0.10;0.10;;;16.30;78.30;;;;;;4191976;28;20098;-60
2022/11/26 08:49:32;;;;;;;0.63;0.63;;;16.30;78.50;;;;;;4192383;28;20058;-60
2022/11/26 08:52:13;;;;;;;0.00;0.00;;;16.20;79.00;;;;;;4191720;28;20060;-60
2022/11/26 08:54:54;;;;;;;0.70;0.70;;;16.20;79.30;;;;;;4191242;28;20046;-59
2022/11/26 08:57:35;;;;;;;0.55;0.55;;;16.20;79.30;;;;;;4181109;28;20055;-59
2022/11/26 09:00:18;;;;;;;0.57;0.57;;;16.10;79.10;;;;;;4175208;28;20055;-60
2022/11/26 09:02:59;;;;;;;4.85;0.65;;;16.20;79.00;;;;;;4181567;28;20119;-60
2022/11/26 09:05:40;;;;;;;3.00;1.88;;;16.20;78.90;;;;;;4192307;28;20051;-58
2022/11/26 09:08:21;;;;;;;0.05;0.05;;;16.10;78.60;;;;;;4189970;28;20047;-59
2022/11/26 09:11:03;;;;;;;0.30;0.30;;;16.20;78.50;;;;;;4206141;27;20047;-59
2022/11/26 09:13:43;;;;;;;0.40;0.40;;;16.10;78.40;;;;;;4205627;27;20098;-59
2022/11/26 09:16:26;;;;;;;0.00;0.00;;;16.10;78.00;;;;;;4191745;28;20490;-59
2022/11/26 09:19:08;;;;;;;0.00;0.00;;;16.10;77.90;;;;;;4191704;28;20039;-60
2022/11/26 09:21:49;;;;;;;0.05;0.05;;;16.10;78.00;;;;;;4192019;28;20222;-59
2022/11/26 09:24:30;;;;;;;3.27;2.97;;;16.10;77.80;;;;;;4191525;28;20153;-59
2022/11/26 09:27:11;;;;;;;0.00;0.00;;;16.00;77.90;;;;;;4203385;27;20372;-59
2022/11/26 09:29:53;;;;;;;0.08;0.08;;;16.00;77.90;;;;;;4174890;28;20083;-59
2022/11/26 09:32:36;;;;;;;0.20;0.20;;;16.10;77.80;;;;;;4187333;28;20129;-59
2022/11/26 09:35:17;;;;;;;0.08;0.08;;;16.10;77.60;;;;;;4191691;28;20113;-58
2022/11/26 09:37:58;;;;;;;0.20;0.20;;;16.10;77.40;;;;;;4188334;28;20055;-59
2022/11/26 09:40:47;;;;;;;0.00;0.00;;;16.10;77.40;;;;;;4192385;28;20438;-59
2022/11/26 09:43:36;;;;;;;0.52;0.52;;;16.00;77.40;;;;;;4208125;28;20055;-59
2022/11/26 09:46:23;;;;;;;0.93;0.52;;;16.00;77.90;;;;;;4208341;28;20055;-59
2022/11/26 09:49:06;;;;;;;0.45;0.40;;;16.00;78.50;;;;;;4208277;28;20054;-58
2022/11/26 09:51:51;;;;;;;0.73;0.73;;;15.90;79.20;;;;;;4208014;28;20063;-59
2022/11/26 09:54:33;;;;;;;2.85;0.88;;;15.90;80.00;;;;;;4207891;28;20055;-59
2022/11/26 09:57:22;;;;;;;0.00;0.00;;;15.90;80.90;;;;;;4200413;28;20444;-59
2022/11/26 10:00:05;;;;;;;0.85;0.85;;;15.90;81.20;;;;;;4191653;28;20533;-59
2022/11/26 10:02:46;;;;;;;0.00;0.00;;;15.90;81.40;;;;;;4193069;28;20549;-59
2022/11/26 10:05:43;;;;;;;0.13;0.13;;;15.90;81.30;;;;;;4185709;28;20055;-60
2022/11/26 10:08:49;;;;;;;0.22;0.22;;;16.00;81.10;;;;;;4178201;28;20051;-59
2022/11/26 10:11:35;;;;;;;0.15;0.15;;;16.00;80.50;;;;;;4173541;28;20059;-59
2022/11/26 10:14:32;;;;;;;0.00;0.00;;;16.10;79.30;;;;;;4173652;28;20094;-59
2022/11/26 10:17:36;;;;;;;0.00;0.00;;;16.10;78.40;;;;;;4186583;28;20410;-60
2022/11/26 10:20:54;;;;;;;0.00;0.00;;;16.10;77.50;;;;;;4177521;28;20102;-60
2022/11/26 10:23:40;;;;;;;1.27;1.13;;;16.20;77.00;;;;;;4190591;28;20142;-60
2022/11/26 10:26:27;;;;;;;0.10;0.10;;;16.30;76.40;;;;;;4191328;28;20059;-60
2022/11/26 10:29:20;;;;;;;0.75;0.75;;;16.40;75.80;;;;;;4176061;28;20059;-60
2022/11/26 10:32:10;;;;;;;0.22;0.22;;;16.50;75.10;;;;;;4175598;28;20106;-59
2022/11/26 10:34:52;;;;;;;0.00;0.00;;;16.70;74.30;;;;;;4175628;28;20064;-59
2022/11/26 10:37:35;;;;;;;0.10;0.10;;;16.70;73.50;;;;;;4180197;28;20060;-60
2022/11/26 10:40:23;;;;;;;0.93;0.82;;;16.80;73.20;;;;;;4158470;28;20061;-60
2022/11/26 10:43:13;;;;;;;0.45;0.45;;;16.80;73.20;;;;;;4165319;28;20520;-60
2022/11/26 10:45:56;;;;;;;0.17;0.17;;;16.80;73.30;;;;;;4158048;28;20060;-59
2022/11/26 10:48:37;;;;;;;2.10;1.55;;;16.80;73.10;;;;;;4195515;28;20083;-59
2022/11/26 10:51:27;;;;;;;1.20;0.68;;;16.90;73.60;;;;;;4207658;28;20067;-59
2022/11/26 10:54:24;;;;;;;0.10;0.10;;;16.90;72.70;;;;;;4189856;28;20192;-59
2022/11/26 10:57:13;;;;;;;0.85;0.85;;;16.90;72.80;;;;;;4206604;28;20072;-59
2022/11/26 10:59:55;;;;;;;0.10;0.10;;;16.90;72.90;;;;;;4201262;28;20055;-59
2022/11/26 11:02:37;;;;;;;0.70;0.70;;;16.80;73.20;;;;;;4181559;28;20162;-59
2022/11/26 11:05:20;;;;;;;0.10;0.10;;;16.80;73.40;;;;;;4181636;28;20104;-59
2022/11/26 11:08:01;;;;;;;0.00;0.00;;;16.80;73.70;;;;;;4183202;28;20118;-59
2022/11/26 11:10:55;;;;;;;0.75;0.75;;;16.80;73.20;;;;;;4166259;28;20064;-61
2022/11/26 11:13:41;;;;;;;0.25;0.25;;;16.80;72.90;;;;;;4176784;28;20051;-61
2022/11/26 11:16:27;;;;;;;0.38;0.38;;;16.80;72.80;;;;;;4160361;28;20196;-60
2022/11/26 11:19:23;;;;;;;0.00;0.00;;;16.70;72.70;;;;;;4175683;28;20182;-60
2022/11/26 11:22:04;;;;;;;0.05;0.05;;;16.70;72.70;;;;;;4193160;28;20387;-60
2022/11/26 11:24:46;;;;;;;0.10;0.10;;;16.60;72.80;;;;;;4196367;28;20059;-60
2022/11/26 11:27:37;;;;;;;0.55;0.55;;;16.60;73.40;;;;;;4210630;28;20059;-60
2022/11/26 11:30:25;;;;;;;0.10;0.10;;;16.50;73.70;;;;;;4210386;28;20063;-59
2022/11/26 11:33:22;;;;;;;0.40;0.40;;;16.50;74.40;;;;;;4210298;28;20046;-60
2022/11/26 11:36:07;;;;;;;0.35;0.35;;;16.40;74.60;;;;;;4176726;28;20155;-59
2022/11/26 11:38:50;;;;;;;0.10;0.10;;;16.50;74.70;;;;;;4193376;28;20111;-60
2022/11/26 11:41:37;;;;;;;0.47;0.47;;;16.50;74.60;;;;;;4177128;28;20110;-60
2022/11/26 11:44:23;;;;;;;0.30;0.30;;;16.40;74.50;;;;;;4176621;28;20558;-60
2022/11/26 11:47:21;;;;;;;0.65;0.65;;;16.40;74.60;;;;;;4194480;28;20376;-60
2022/11/26 11:50:20;;;;;;;0.57;0.57;;;16.40;74.70;;;;;;4207372;28;20063;-60
2022/11/26 11:53:35;;;;;;;0.00;0.00;;;16.30;75.00;;;;;;4210251;28;20513;-59
2022/11/26 11:56:36;;;;;;;0.20;0.20;;;16.20;74.90;;;;;;4208342;28;20067;-59
2022/11/26 11:59:46;;;;;;;0.10;0.10;;;16.10;75.30;;;;;;4207954;28;20459;-58
2022/11/26 12:03:01;;;;;;;0.00;0.00;;;16.10;75.60;;;;;;4192753;27;20051;-58
2022/11/26 12:06:15;;;;;;;0.00;0.00;;;16.20;76.00;;;;;;4209827;28;20154;-60
2022/11/26 12:09:05;;;;;;;0.00;0.00;;;16.30;75.80;;;;;;4160420;28;20056;-60
2022/11/26 12:11:55;;;;;;;0.00;0.00;;;16.30;75.50;;;;;;4160420;28;20134;-59
2022/11/26 12:14:41;;;;;;;0.00;0.00;;;16.30;75.40;;;;;;4176743;28;20442;-60
2022/11/26 12:17:30;;;;;;;0.25;0.25;;;16.20;75.20;;;;;;4186733;28;20055;-60
2022/11/26 12:20:19;;;;;;;0.00;0.00;;;16.10;75.90;;;;;;4201747;28;20054;-60
2022/11/26 12:23:13;;;;;;;0.20;0.20;;;16.10;76.90;;;;;;4206449;28;20129;-58
2022/11/26 12:26:05;;;;;;;0.15;0.15;;;16.10;77.30;;;;;;4176127;28;20780;-59
2022/11/26 12:28:55;;;;;;;0.10;0.10;;;16.00;77.20;;;;;;4176213;28;20059;-59
2022/11/26 12:31:42;;;;;;;0.28;0.28;;;16.00;76.90;;;;;;4176241;28;20106;-60
2022/11/26 12:34:29;;;;;;;0.22;0.22;;;16.00;76.40;;;;;;4173809;28;20110;-60
2022/11/26 12:37:17;;;;;;;0.00;0.00;;;16.00;76.00;;;;;;4179073;28;20039;-60
2022/11/26 12:40:03;;;;;;;1.25;1.25;;;16.00;75.80;;;;;;4201614;27;20158;-60
2022/11/26 12:42:52;;;;;;;0.70;0.70;;;16.00;75.60;;;;;;4209146;28;20156;-60
2022/11/26 12:45:47;;;;;;;0.17;0.17;;;16.00;75.50;;;;;;4209106;28;20059;-60
2022/11/26 12:48:41;;;;;;;0.13;0.13;;;16.00;75.30;;;;;;4208556;28;20177;-60
2022/11/26 12:51:28;;;;;;;0.17;0.15;;;16.00;75.00;;;;;;4176086;28;20066;-60
2022/11/26 12:54:16;;;;;;;0.40;0.40;;;16.00;74.70;;;;;;4176056;28;20095;-60
2022/11/26 12:57:02;;;;;;;0.95;0.93;;;16.10;74.40;;;;;;4175799;28;20131;-60
2022/11/26 12:59:49;;;;;;;0.00;0.00;;;16.10;74.20;;;;;;4190973;28;20047;-60
2022/11/26 13:02:34;;;;;;;0.00;0.00;;;16.10;74.20;;;;;;4191897;28;20070;-60
2022/11/26 13:05:19;;;;;;;0.00;0.00;;;16.10;74.20;;;;;;4191901;28;20097;-61
2022/11/26 13:08:17;;;;;;;0.00;0.00;;;16.10;74.40;;;;;;4191934;28;20050;-60
2022/11/26 13:11:14;;;;;;;0.10;0.10;;;16.10;74.30;;;;;;4204352;28;20051;-60
2022/11/26 13:14:01;;;;;;;0.55;0.55;;;16.20;74.10;;;;;;4195063;28;20100;-62
2022/11/26 13:16:50;;;;;;;0.00;0.00;;;16.20;73.70;;;;;;4193730;28;20052;-60
2022/11/26 13:19:37;;;;;;;0.00;0.00;;;16.30;73.60;;;;;;4174752;28;20116;-60
2022/11/26 13:22:43;;;;;;;0.55;0.55;;;16.20;74.40;;;;;;4186584;28;20059;-60
2022/11/26 13:25:38;;;;;;;0.00;0.00;;;16.20;73.70;;;;;;4191122;28;20071;-60
2022/11/26 13:28:29;;;;;;;1.80;0.98;;;16.10;73.90;;;;;;4207383;28;20173;-58
2022/11/26 13:31:37;;;;;;;0.10;0.10;;;16.10;74.20;;;;;;4208586;28;20050;-64
2022/11/26 13:34:38;;;;;;;0.10;0.10;;;16.00;74.40;;;;;;4198361;28;20051;-59
2022/11/26 13:37:50;;;;;;;2.42;1.88;;;16.10;74.40;;;;;;4191203;28;20407;-59
2022/11/26 13:40:55;;;;;;;0.00;0.00;;;16.10;74.20;;;;;;4191820;28;20052;-59
2022/11/26 13:44:15;;;;;;;0.85;0.85;;;16.10;74.40;;;;;;4175511;28;20067;-59
2022/11/26 13:46:59;;;;;;;0.00;0.00;;;16.10;74.40;;;;;;4175206;28;20546;-59
2022/11/26 13:49:47;;;;;;;0.17;0.17;;;16.20;74.30;;;;;;4174984;28;20088;-60
2022/11/26 13:52:34;;;;;;;0.95;0.95;;;16.20;75.00;;;;;;4175281;28;20056;-59
2022/11/26 13:55:21;;;;;;;1.38;1.08;;;16.30;74.00;;;;;;4174971;28;20064;-60
2022/11/26 13:58:07;;;;;;;0.05;0.05;;;16.30;73.90;;;;;;4181256;28;20048;-60
2022/11/26 14:00:48;;;;;;;0.30;0.30;;;16.30;74.10;;;;;;4175151;28;20059;-60
2022/11/26 14:03:53;;;;;;;0.10;0.10;;;16.20;74.50;;;;;;4181300;28;20491;-60
2022/11/26 14:06:35;;;;;;;0.63;0.60;;;16.20;75.10;;;;;;4208012;28;20383;-59
2022/11/26 14:09:46;;;;;;;3.40;1.13;;;16.20;76.10;;;;;;4191600;28;20056;-60
2022/11/26 14:13:00;;;;;;;0.20;0.20;;;16.30;76.90;;;;;;4191077;28;20063;-60
2022/11/26 14:15:56;;;;;;;0.85;0.85;;;16.40;77.10;;;;;;4191601;28;20407;-59
2022/11/26 14:19:03;;;;;;;0.00;0.00;;;16.40;77.20;;;;;;4190043;28;20157;-60
2022/11/26 14:21:59;;;;;;;2.95;2.65;;;16.50;77.40;;;;;;4190905;28;20129;-60